Hauptseite
METAR-TAF:

METAR-TAF

Flughäfen :

Flughafen Kassel-Calden

Kassel, Deutschland

Breite: 51-24N, Länge: 009-23E, Höhe: 277 m

Beobachtung

Neuester Wetterbericht von vor 28 Minuten, um 07:50 UTC
Wind 8 kt aus Südost
Temperatur -1°C
Luftfeuchtigkeit 93%
Luftdruck 1013 hPa
Sichtweite 10 km oder mehr
Leicht bewölkt in der Höhe von 4500 ft

METAR: EDVK 270750Z 14008KT 9999 FEW045 M01/M02 Q1013

Zeit: 09:18 (08:18 UTC)

Prognose

Neuester Wetterbericht von vor 1 Stunde und 27 Minuten, um 06:51 UTC
Gültige Prognose vom 27 um 07 UTC bis 27 um 15 UTC
Wind 9 kt aus Süd
Sichtweite 10 km oder mehr
Aufgelockert bewölkt in der Höhe von 4000 ft
Zeitweise
vom 27 um 09 UTC bis 27 um 15 UTC
Sichtweite: 4000 m
Durchbrochene Bewölkung in der Höhe von 1200 ft
Schnee leicht

TAF: EDVK 270651Z 2707/2715 17009KT 9999 SCT040 TEMPO 2709/2715 4000 -SN BKN012

Wetterbeobachtungen und Prognosen von mehr als 4000 Flughäfen (METAR und TAF Bericht).

Die verfügbaren Stationen werden durch gelbe und rote Markierungen auf der Karte dargestellt.

Führen Sie die Maus auf sie, um den Namen der Station zu sehen.

Darauf klicken, um die Beobachtung von Wetterbeobachtungen und Prognosen zu sehen.

Um die Karte zu ändern : klicken Sie auf den grünen Tasten mit einem schwarzen Kreuz Zum Vergrößern, auf den grünen Button mit einem Gedankenstrich zu verkleinern, oder auf die grünen Pfeile für benachbarte Karten.


METAR-TAF: